createdAt,value
2018-04-28T00:00:39.672Z,997.54
2018-04-28T00:01:45.143Z,997.56
2018-04-28T00:02:50.662Z,997.57
2018-04-28T00:03:56.168Z,997.58
2018-04-28T00:05:01.684Z,997.58
2018-04-28T00:06:07.198Z,997.57
2018-04-28T00:07:12.705Z,997.56
2018-04-28T00:08:18.219Z,997.55
2018-04-28T00:09:23.731Z,997.57
2018-04-28T00:10:29.248Z,997.58
2018-04-28T00:11:34.763Z,997.56
2018-04-28T00:12:40.275Z,997.59
2018-04-28T00:13:45.786Z,997.58
2018-04-28T00:14:51.293Z,997.56
2018-04-28T00:15:56.815Z,997.58
2018-04-28T00:17:02.323Z,997.60
2018-04-28T00:18:07.833Z,997.57
2018-04-28T00:19:13.347Z,997.61
2018-04-28T00:20:18.873Z,997.63
2018-04-28T00:21:24.378Z,997.63
2018-04-28T00:22:29.885Z,997.62
2018-04-28T00:23:35.414Z,997.64
2018-04-28T00:24:40.918Z,997.64
2018-04-28T00:25:46.430Z,997.65
2018-04-28T00:26:51.938Z,997.67
2018-04-28T00:27:57.458Z,997.69
2018-04-28T00:29:02.966Z,997.67
2018-04-28T00:30:08.475Z,997.69
2018-04-28T00:31:13.991Z,997.69
2018-04-28T00:32:19.503Z,997.70
2018-04-28T00:33:25.027Z,997.73
2018-04-28T00:34:30.528Z,997.75
2018-04-28T00:35:36.057Z,997.74
2018-04-28T00:36:41.560Z,997.73
2018-04-28T00:37:47.070Z,997.79
2018-04-28T00:38:52.583Z,997.76
2018-04-28T00:39:58.096Z,997.81
2018-04-28T00:41:03.607Z,997.77
2018-04-28T00:42:09.121Z,997.77
2018-04-28T00:43:14.633Z,997.82
2018-04-28T00:44:20.149Z,997.86
2018-04-28T00:45:25.666Z,997.84
2018-04-28T00:46:31.186Z,997.82
2018-04-28T00:47:36.690Z,997.84
2018-04-28T00:48:42.207Z,997.84
2018-04-28T00:49:47.716Z,997.88
2018-04-28T00:50:53.227Z,997.88
2018-04-28T00:51:58.741Z,997.87
2018-04-28T00:53:04.262Z,997.90
2018-04-28T00:54:09.775Z,997.89
2018-04-28T00:55:15.285Z,997.90
2018-04-28T00:56:20.800Z,997.89
2018-04-28T00:57:26.311Z,997.91
2018-04-28T00:58:31.831Z,997.92
2018-04-28T00:59:37.335Z,997.93
2018-04-28T01:00:42.865Z,997.97
2018-04-28T01:01:48.369Z,997.99
2018-04-28T01:02:53.878Z,998.01
2018-04-28T01:03:59.394Z,998.01
2018-04-28T01:05:04.916Z,998.03
2018-04-28T01:06:10.416Z,998.05
2018-04-28T01:07:15.929Z,998.04
2018-04-28T01:08:21.441Z,998.00
2018-04-28T01:09:26.958Z,997.97
2018-04-28T01:10:32.473Z,998.04
2018-04-28T01:11:38.087Z,998.04
2018-04-28T01:12:43.496Z,998.06
2018-04-28T01:13:49.026Z,998.06
2018-04-28T01:14:54.523Z,998.05
2018-04-28T01:16:00.039Z,998.04
2018-04-28T01:17:05.548Z,998.04
2018-04-28T01:18:11.082Z,998.00
2018-04-28T01:19:16.582Z,998.05
2018-04-28T01:20:22.108Z,998.04
2018-04-28T01:21:27.603Z,998.08
2018-04-28T01:22:33.119Z,998.07
2018-04-28T01:23:38.629Z,998.07
2018-04-28T01:24:44.146Z,998.08
2018-04-28T01:25:49.662Z,998.13
2018-04-28T01:26:55.172Z,998.12
2018-04-28T01:28:00.687Z,998.11
2018-04-28T01:29:06.199Z,998.11
2018-04-28T01:30:11.711Z,998.10
2018-04-28T01:31:17.239Z,998.08
2018-04-28T01:32:22.751Z,998.14
2018-04-28T01:33:28.254Z,998.16
2018-04-28T01:34:33.767Z,998.14
2018-04-28T01:35:39.281Z,998.14
2018-04-28T01:36:44.800Z,998.19
2018-04-28T01:37:50.323Z,998.16
2018-04-28T01:38:55.826Z,998.18
2018-04-28T01:40:01.335Z,998.17
2018-04-28T01:41:06.857Z,998.19
2018-04-28T01:42:12.369Z,998.21
2018-04-28T01:43:17.876Z,998.21
2018-04-28T01:44:23.397Z,998.19
2018-04-28T01:45:28.905Z,998.23
2018-04-28T01:46:34.420Z,998.22
2018-04-28T01:47:39.941Z,998.21
2018-04-28T01:48:45.555Z,998.22
2018-04-28T01:49:51.029Z,998.22
2018-04-28T01:50:56.473Z,998.22
2018-04-28T01:52:02.023Z,998.22
2018-04-28T01:53:07.500Z,998.25
2018-04-28T01:54:13.015Z,998.26
2018-04-28T01:55:18.526Z,998.23
2018-04-28T01:56:24.049Z,998.19
2018-04-28T01:57:29.560Z,998.23
2018-04-28T01:58:35.075Z,998.23
2018-04-28T01:59:40.586Z,998.24
2018-04-28T02:00:46.096Z,998.24
2018-04-28T02:01:51.609Z,998.27
2018-04-28T02:02:57.137Z,998.23
2018-04-28T02:04:02.637Z,998.27
2018-04-28T02:05:08.161Z,998.28
2018-04-28T02:06:13.675Z,998.32
2018-04-28T02:07:19.177Z,998.31
2018-04-28T02:08:24.697Z,998.31
2018-04-28T02:09:30.210Z,998.34
2018-04-28T02:10:35.727Z,998.34
2018-04-28T02:11:41.235Z,998.33
2018-04-28T02:12:46.746Z,998.32
2018-04-28T02:13:52.262Z,998.29
2018-04-28T02:14:57.779Z,998.32
2018-04-28T02:16:03.287Z,998.36
2018-04-28T02:17:08.805Z,998.41
2018-04-28T02:18:14.318Z,998.43
2018-04-28T02:19:19.840Z,998.47
2018-04-28T02:20:25.342Z,998.51
2018-04-28T02:21:30.858Z,998.50
2018-04-28T02:22:36.376Z,998.53
2018-04-28T02:23:41.888Z,998.53
2018-04-28T02:24:47.398Z,998.54
2018-04-28T02:25:52.913Z,998.56
2018-04-28T02:26:58.425Z,998.55
2018-04-28T02:28:03.938Z,998.55
2018-04-28T02:29:09.464Z,998.58
2018-04-28T02:30:14.967Z,998.61
2018-04-28T02:31:20.481Z,998.60
2018-04-28T02:32:25.993Z,998.58
2018-04-28T02:33:31.506Z,998.65
2018-04-28T02:34:37.019Z,998.67
2018-04-28T02:35:42.540Z,998.64
2018-04-28T02:36:48.047Z,998.64
2018-04-28T02:37:53.557Z,998.66
2018-04-28T02:38:59.074Z,998.67
2018-04-28T02:40:04.590Z,998.68
2018-04-28T02:41:10.101Z,998.67
2018-04-28T02:42:15.614Z,998.67
2018-04-28T02:43:21.136Z,998.66
2018-04-28T02:44:26.641Z,998.69
2018-04-28T02:45:32.155Z,998.68
2018-04-28T02:46:37.667Z,998.70
2018-04-28T02:47:43.185Z,998.71
2018-04-28T02:48:48.695Z,998.75
2018-04-28T02:49:54.206Z,998.74
2018-04-28T02:50:59.723Z,998.69
2018-04-28T02:52:05.246Z,998.74
2018-04-28T02:53:10.748Z,998.75
2018-04-28T02:54:16.263Z,998.76
2018-04-28T02:55:21.868Z,998.76
2018-04-28T02:56:27.287Z,998.75
2018-04-28T02:57:32.805Z,998.74
2018-04-28T02:58:38.314Z,998.76
2018-04-28T02:59:43.826Z,998.77
2018-04-28T03:00:49.350Z,998.76
2018-04-28T03:01:54.861Z,998.79
2018-04-28T03:03:00.384Z,998.79
2018-04-28T03:04:05.891Z,998.76
2018-04-28T03:05:11.399Z,998.77
2018-04-28T03:06:16.909Z,998.79
2018-04-28T03:07:22.434Z,998.78
2018-04-28T03:08:27.939Z,998.81
2018-04-28T03:09:33.453Z,998.79
2018-04-28T03:10:38.964Z,998.75
2018-04-28T03:11:44.475Z,998.74
2018-04-28T03:12:49.987Z,998.71
2018-04-28T03:13:55.507Z,998.73
2018-04-28T03:15:01.019Z,998.75
2018-04-28T03:16:06.526Z,998.75
2018-04-28T03:17:12.053Z,998.76
2018-04-28T03:18:17.573Z,998.74
2018-04-28T03:19:23.070Z,998.71
2018-04-28T03:20:28.582Z,998.77
2018-04-28T03:21:34.095Z,998.76
2018-04-28T03:22:39.610Z,998.73
2018-04-28T03:23:45.123Z,998.77
2018-04-28T03:24:50.639Z,998.77
2018-04-28T03:25:56.147Z,998.77
2018-04-28T03:27:01.666Z,998.71
2018-04-28T03:28:07.263Z,998.73
2018-04-28T03:29:12.691Z,998.72
2018-04-28T03:30:18.214Z,998.74
2018-04-28T03:31:23.718Z,998.76
2018-04-28T03:32:29.227Z,998.79
2018-04-28T03:33:34.742Z,998.76
2018-04-28T03:34:40.266Z,998.79
2018-04-28T03:35:45.769Z,998.73
2018-04-28T03:36:51.282Z,998.72
2018-04-28T03:37:56.794Z,998.74
2018-04-28T03:39:02.306Z,998.73
2018-04-28T03:40:07.820Z,998.77
2018-04-28T03:41:13.335Z,998.74
2018-04-28T03:42:18.861Z,998.79
2018-04-28T03:43:24.369Z,998.76
2018-04-28T03:44:29.883Z,998.77
2018-04-28T03:45:35.392Z,998.82
2018-04-28T03:46:40.900Z,998.81
2018-04-28T03:47:46.417Z,998.82
2018-04-28T03:48:51.944Z,998.82
2018-04-28T03:49:57.439Z,998.83
2018-04-28T03:51:02.958Z,998.89
2018-04-28T03:52:08.464Z,998.83
2018-04-28T03:53:13.982Z,998.77
2018-04-28T03:54:19.495Z,998.77
2018-04-28T03:55:25.009Z,998.78
2018-04-28T03:56:30.528Z,998.79
2018-04-28T03:57:36.046Z,998.85
2018-04-28T03:58:41.547Z,998.85
2018-04-28T03:59:47.062Z,998.85
2018-04-28T04:00:52.576Z,998.84
2018-04-28T04:01:58.087Z,998.87
2018-04-28T04:03:03.624Z,998.85
2018-04-28T04:04:09.122Z,998.87
2018-04-28T04:05:14.633Z,998.88
2018-04-28T04:06:20.137Z,998.86
2018-04-28T04:07:25.651Z,998.88
2018-04-28T04:08:31.167Z,998.84
2018-04-28T04:09:36.681Z,998.89
2018-04-28T04:10:42.195Z,998.92
2018-04-28T04:11:47.708Z,998.89
2018-04-28T04:12:53.219Z,998.91
2018-04-28T04:13:58.736Z,998.91
2018-04-28T04:15:04.253Z,998.94
2018-04-28T04:16:09.764Z,998.96
2018-04-28T04:17:15.279Z,998.97
2018-04-28T04:18:20.789Z,999.00
2018-04-28T04:19:26.298Z,999.03
2018-04-28T04:20:31.812Z,999.05
2018-04-28T04:21:37.326Z,999.07
2018-04-28T04:22:42.838Z,999.08
2018-04-28T04:23:48.356Z,999.10
2018-04-28T04:24:53.864Z,999.10
2018-04-28T04:25:59.376Z,999.13
2018-04-28T04:27:04.896Z,999.14
2018-04-28T04:28:10.416Z,999.12
2018-04-28T04:29:15.921Z,999.14
2018-04-28T04:30:21.434Z,999.16
2018-04-28T04:31:26.945Z,999.17
2018-04-28T04:32:32.456Z,999.15
2018-04-28T04:33:38.019Z,999.15
2018-04-28T04:34:43.481Z,999.18
2018-04-28T04:35:48.993Z,999.17
2018-04-28T04:36:54.511Z,999.17
2018-04-28T04:38:00.021Z,999.19
2018-04-28T04:39:05.551Z,999.16
2018-04-28T04:40:11.048Z,999.19
2018-04-28T04:41:16.566Z,999.23
2018-04-28T04:42:22.076Z,999.21
2018-04-28T04:43:27.587Z,999.20
2018-04-28T04:44:33.099Z,999.24
2018-04-28T04:45:38.612Z,999.24
2018-04-28T04:46:44.146Z,999.26
2018-04-28T04:47:49.644Z,999.31
2018-04-28T04:48:55.154Z,999.33
2018-04-28T04:50:00.665Z,999.32
2018-04-28T04:51:06.175Z,999.35
2018-04-28T04:52:11.691Z,999.34
2018-04-28T04:53:17.207Z,999.34
2018-04-28T04:54:22.730Z,999.34
2018-04-28T04:55:28.241Z,999.35
2018-04-28T04:56:33.749Z,999.37
2018-04-28T04:57:39.257Z,999.34
2018-04-28T04:58:44.771Z,999.37
2018-04-28T04:59:50.283Z,999.36
2018-04-28T05:00:55.806Z,999.41
2018-04-28T05:02:01.316Z,999.36
2018-04-28T05:03:06.820Z,999.41
2018-04-28T05:04:12.345Z,999.39
2018-04-28T05:05:17.847Z,999.42
2018-04-28T05:06:23.363Z,999.46
2018-04-28T05:07:28.882Z,999.47
2018-04-28T05:08:34.431Z,999.47
2018-04-28T05:09:39.902Z,999.50
2018-04-28T05:10:45.464Z,999.48
2018-04-28T05:11:50.927Z,999.46
2018-04-28T05:12:56.444Z,999.50
2018-04-28T05:14:01.969Z,999.54
2018-04-28T05:15:07.466Z,999.55
2018-04-28T05:16:12.976Z,999.54
2018-04-28T05:17:18.493Z,999.57
2018-04-28T05:18:24.003Z,999.59
2018-04-28T05:19:29.521Z,999.58
2018-04-28T05:20:35.032Z,999.62
2018-04-28T05:21:40.550Z,999.60
2018-04-28T05:22:46.054Z,999.60
2018-04-28T05:23:51.568Z,999.64
2018-04-28T05:24:57.088Z,999.69
2018-04-28T05:26:02.601Z,999.64
2018-04-28T05:27:08.105Z,999.70
2018-04-28T05:28:13.623Z,999.68
2018-04-28T05:29:19.145Z,999.70
2018-04-28T05:30:24.646Z,999.73
2018-04-28T05:31:30.160Z,999.72
2018-04-28T05:32:35.675Z,999.74
2018-04-28T05:33:41.186Z,999.73
2018-04-28T05:34:46.697Z,999.72
2018-04-28T05:35:52.209Z,999.74
2018-04-28T05:36:57.727Z,999.78
2018-04-28T05:38:03.242Z,999.81
2018-04-28T05:39:08.761Z,999.79
2018-04-28T05:40:14.267Z,999.81
2018-04-28T05:41:19.776Z,999.80
2018-04-28T05:42:25.290Z,999.85
2018-04-28T05:43:30.809Z,999.86
2018-04-28T05:44:36.318Z,999.83
2018-04-28T05:45:41.828Z,999.86
2018-04-28T05:46:47.375Z,999.90
2018-04-28T05:47:52.855Z,999.91
2018-04-28T05:48:58.378Z,999.89
2018-04-28T05:50:03.889Z,999.95
2018-04-28T05:51:09.405Z,999.91
2018-04-28T05:52:14.920Z,999.94
2018-04-28T05:53:20.422Z,999.92
2018-04-28T05:54:25.935Z,999.94
2018-04-28T05:55:31.454Z,999.99
2018-04-28T05:56:36.975Z,999.98
2018-04-28T05:57:42.508Z,999.99
2018-04-28T05:58:47.997Z,999.99
2018-04-28T05:59:53.505Z,999.97
2018-04-28T06:00:59.026Z,1000.03
2018-04-28T06:02:04.530Z,1000.06
2018-04-28T06:03:10.049Z,1000.10
2018-04-28T06:04:15.560Z,1000.13
2018-04-28T06:05:21.077Z,1000.08
2018-04-28T06:06:26.585Z,1000.15
2018-04-28T06:07:32.101Z,1000.14
2018-04-28T06:08:37.611Z,1000.14
2018-04-28T06:09:43.126Z,1000.12
2018-04-28T06:10:48.641Z,1000.19
2018-04-28T06:11:54.154Z,1000.21
2018-04-28T06:12:59.676Z,1000.16
2018-04-28T06:14:05.266Z,1000.20
2018-04-28T06:15:10.695Z,1000.22
2018-04-28T06:16:16.227Z,1000.25
2018-04-28T06:17:21.722Z,1000.25
2018-04-28T06:18:27.235Z,1000.26
2018-04-28T06:19:32.755Z,1000.25
2018-04-28T06:20:38.267Z,1000.27
2018-04-28T06:21:43.864Z,1000.24
2018-04-28T06:22:49.292Z,1000.25
2018-04-28T06:23:54.806Z,1000.31
2018-04-28T06:25:00.334Z,1000.28
2018-04-28T06:26:05.918Z,1000.32
2018-04-28T06:27:11.347Z,1000.31
2018-04-28T06:28:16.865Z,1000.29
2018-04-28T06:29:22.379Z,1000.32
2018-04-28T06:30:27.889Z,1000.32
2018-04-28T06:31:33.411Z,1000.32
2018-04-28T06:32:38.916Z,1000.29
2018-04-28T06:33:44.434Z,1000.30
2018-04-28T06:34:49.961Z,1000.34
2018-04-28T06:35:55.459Z,1000.30
2018-04-28T06:37:00.982Z,1000.31
2018-04-28T06:38:06.492Z,1000.35
2018-04-28T06:39:12.003Z,1000.33
2018-04-28T06:40:17.520Z,1000.39
2018-04-28T06:41:23.040Z,1000.36
2018-04-28T06:42:28.552Z,1000.36
2018-04-28T06:43:34.062Z,1000.36
2018-04-28T06:44:39.576Z,1000.34
2018-04-28T06:45:45.088Z,1000.38
2018-04-28T06:46:50.600Z,1000.43
2018-04-28T06:47:56.121Z,1000.45
2018-04-28T06:49:01.633Z,1000.39
2018-04-28T06:50:07.148Z,1000.43
2018-04-28T06:51:12.663Z,1000.45
2018-04-28T06:52:18.174Z,1000.39
2018-04-28T06:53:23.689Z,1000.41
2018-04-28T06:54:29.207Z,1000.43
2018-04-28T06:55:34.718Z,1000.44
2018-04-28T06:56:40.236Z,1000.47
2018-04-28T06:57:45.751Z,1000.53
2018-04-28T06:58:51.260Z,1000.48
2018-04-28T06:59:56.779Z,1000.55
2018-04-28T07:01:02.300Z,1000.55
2018-04-28T07:02:07.802Z,1000.53
2018-04-28T07:03:13.316Z,1000.54
2018-04-28T07:04:18.838Z,1000.57
2018-04-28T07:05:24.346Z,1000.55
2018-04-28T07:06:29.868Z,1000.60
2018-04-28T07:07:35.377Z,1000.55
2018-04-28T07:08:40.904Z,1000.58
2018-04-28T07:09:46.402Z,1000.62
2018-04-28T07:10:52.007Z,1000.59
2018-04-28T07:11:57.436Z,1000.64
2018-04-28T07:13:02.947Z,1000.63
2018-04-28T07:14:08.477Z,1000.64
2018-04-28T07:15:13.978Z,1000.64
2018-04-28T07:16:19.494Z,1000.66
2018-04-28T07:17:25.006Z,1000.63
2018-04-28T07:18:30.523Z,1000.62
2018-04-28T07:19:36.053Z,1000.60
2018-04-28T07:20:41.557Z,1000.66
2018-04-28T07:21:47.078Z,1000.68
2018-04-28T07:22:52.589Z,1000.70
2018-04-28T07:23:58.113Z,1000.63
2018-04-28T07:25:03.615Z,1000.63
2018-04-28T07:26:09.128Z,1000.67
2018-04-28T07:27:14.646Z,1000.64
2018-04-28T07:28:20.156Z,1000.67
2018-04-28T07:29:25.716Z,1000.69
2018-04-28T07:30:31.276Z,1000.71
2018-04-28T07:31:36.708Z,1000.76
2018-04-28T07:32:42.218Z,1000.78
2018-04-28T07:33:47.743Z,1000.83
2018-04-28T07:34:53.253Z,1000.81
2018-04-28T07:35:58.761Z,1000.83
2018-04-28T07:37:04.286Z,1000.83
2018-04-28T07:38:09.796Z,1000.80
2018-04-28T07:39:15.307Z,1000.80
2018-04-28T07:40:20.837Z,1000.85
2018-04-28T07:41:26.347Z,1000.81
2018-04-28T07:42:31.853Z,1000.78
2018-04-28T07:43:37.367Z,1000.81
2018-04-28T07:44:42.886Z,1000.82
2018-04-28T07:45:48.399Z,1000.81
2018-04-28T07:46:53.914Z,1000.80
2018-04-28T07:47:59.429Z,1000.84
2018-04-28T07:49:04.951Z,1000.86
2018-04-28T07:50:10.458Z,1000.85
2018-04-28T07:51:15.976Z,1000.85
2018-04-28T07:52:21.490Z,1000.86
2018-04-28T07:53:27.026Z,1000.81
2018-04-28T07:54:32.523Z,1000.86
2018-04-28T07:55:38.046Z,1000.84
2018-04-28T07:56:43.548Z,1000.88
2018-04-28T07:57:49.076Z,1000.85
2018-04-28T07:58:54.579Z,1000.88
2018-04-28T08:00:00.101Z,1000.87
2018-04-28T08:01:05.611Z,1000.84
2018-04-28T08:02:11.146Z,1000.85
2018-04-28T08:03:16.657Z,1000.88
2018-04-28T08:04:22.157Z,1000.87
2018-04-28T08:05:27.675Z,1000.90
2018-04-28T08:06:33.190Z,1000.85
2018-04-28T08:07:38.701Z,1000.89
2018-04-28T08:08:44.217Z,1000.91
2018-04-28T08:09:49.729Z,1000.90
2018-04-28T08:10:55.244Z,1000.89
2018-04-28T08:12:00.762Z,1000.88
2018-04-28T08:13:06.290Z,1000.91
2018-04-28T08:14:11.794Z,1000.94
2018-04-28T08:15:17.388Z,1000.97
2018-04-28T08:16:22.832Z,1000.97
2018-04-28T08:17:28.347Z,1000.92
2018-04-28T08:18:33.853Z,1000.90
2018-04-28T08:19:39.368Z,1000.93
2018-04-28T08:20:44.924Z,1000.91
2018-04-28T08:21:50.398Z,1000.90
2018-04-28T08:22:55.911Z,1000.93
2018-04-28T08:24:01.431Z,1000.88
2018-04-28T08:25:06.957Z,1000.94
2018-04-28T08:26:12.476Z,1000.90
2018-04-28T08:27:17.979Z,1000.94
2018-04-28T08:28:23.506Z,1000.96
2018-04-28T08:29:29.008Z,1000.98
2018-04-28T08:30:34.532Z,1000.98
2018-04-28T08:31:40.037Z,1001.02
2018-04-28T08:32:45.558Z,1000.94
2018-04-28T08:33:51.066Z,1001.05
2018-04-28T08:34:56.586Z,1001.01
2018-04-28T08:36:02.100Z,1000.99
2018-04-28T08:37:07.682Z,1000.94
2018-04-28T08:38:13.133Z,1000.99
2018-04-28T08:39:18.647Z,1000.96
2018-04-28T08:40:24.165Z,1000.95
2018-04-28T08:41:29.688Z,1000.94
2018-04-28T08:42:35.224Z,1000.91
2018-04-28T08:43:40.763Z,1000.92
2018-04-28T08:44:46.222Z,1000.98
2018-04-28T08:45:51.747Z,1000.99
2018-04-28T08:46:57.264Z,1000.98
2018-04-28T08:48:02.775Z,1001.00
2018-04-28T08:49:08.288Z,1000.98
2018-04-28T08:50:13.808Z,1000.98
2018-04-28T08:51:19.323Z,1000.97
2018-04-28T08:52:24.836Z,1001.00
2018-04-28T08:53:30.353Z,1001.02
2018-04-28T08:54:35.875Z,1001.02
2018-04-28T08:55:41.384Z,1001.01
2018-04-28T08:56:46.944Z,1001.02
2018-04-28T08:57:52.419Z,1001.00
2018-04-28T08:58:57.932Z,1001.03
2018-04-28T09:00:03.441Z,1001.03
2018-04-28T09:01:08.963Z,1000.99
2018-04-28T09:02:14.479Z,1001.02
2018-04-28T09:03:19.991Z,1000.99
2018-04-28T09:04:25.558Z,1001.00
2018-04-28T09:05:31.031Z,1000.96
2018-04-28T09:06:36.540Z,1000.98
2018-04-28T09:07:42.051Z,1000.96
2018-04-28T09:08:47.570Z,1000.98
2018-04-28T09:09:53.082Z,1000.98
2018-04-28T09:10:58.621Z,1000.98
2018-04-28T09:12:04.115Z,1001.02
2018-04-28T09:13:09.652Z,1001.09
2018-04-28T09:14:15.149Z,1000.99
2018-04-28T09:15:20.675Z,1001.00
2018-04-28T09:16:26.198Z,1001.02
2018-04-28T09:17:31.698Z,1001.04
2018-04-28T09:18:37.213Z,1001.05
2018-04-28T09:19:42.733Z,1001.07
2018-04-28T09:20:48.256Z,1001.03
2018-04-28T09:21:53.760Z,1001.05
2018-04-28T09:22:59.288Z,1001.06
2018-04-28T09:24:04.793Z,1001.10
2018-04-28T09:25:10.312Z,1001.08
2018-04-28T09:26:15.832Z,1001.07
2018-04-28T09:27:21.355Z,1001.10
2018-04-28T09:28:26.860Z,1001.05
2018-04-28T09:29:32.380Z,1001.14
2018-04-28T09:30:37.895Z,1001.11
2018-04-28T09:31:43.408Z,1001.09
2018-04-28T09:32:48.931Z,1001.13
2018-04-28T09:33:54.443Z,1001.15
2018-04-28T09:34:59.956Z,1001.14
2018-04-28T09:36:05.473Z,1001.17
2018-04-28T09:37:11.154Z,1001.13
2018-04-28T09:38:16.509Z,1001.13
2018-04-28T09:39:22.029Z,1001.10
2018-04-28T09:40:27.632Z,1001.13
2018-04-28T09:41:33.080Z,1001.15
2018-04-28T09:42:38.572Z,1001.16
2018-04-28T09:43:44.100Z,1001.14
2018-04-28T09:44:49.613Z,1001.11
2018-04-28T09:45:55.139Z,1001.13
2018-04-28T09:47:00.659Z,1001.14
2018-04-28T09:48:06.176Z,1001.13
2018-04-28T09:49:11.769Z,1001.13
2018-04-28T09:50:17.196Z,1001.14
2018-04-28T09:51:22.717Z,1001.19
2018-04-28T09:52:28.225Z,1001.16
2018-04-28T09:53:33.745Z,1001.19
2018-04-28T09:54:39.266Z,1001.20
2018-04-28T09:55:44.781Z,1001.18
2018-04-28T09:56:50.290Z,1001.19
2018-04-28T09:57:55.812Z,1001.17
2018-04-28T09:59:01.420Z,1001.16
2018-04-28T10:00:06.847Z,1001.14
2018-04-28T10:01:12.379Z,1001.18
2018-04-28T10:02:17.943Z,1001.12
2018-04-28T10:03:23.396Z,1001.07
2018-04-28T10:04:28.908Z,1001.11
2018-04-28T10:05:34.430Z,1001.14
2018-04-28T10:06:39.957Z,1001.12
2018-04-28T10:07:45.467Z,1001.13
2018-04-28T10:08:50.994Z,1001.08
2018-04-28T10:09:56.494Z,1001.08
2018-04-28T10:11:02.024Z,1001.09
2018-04-28T10:12:07.550Z,1001.08
2018-04-28T10:13:13.054Z,1001.09
2018-04-28T10:14:18.566Z,1001.10
2018-04-28T10:15:24.097Z,1001.05
2018-04-28T10:16:29.597Z,1001.05
2018-04-28T10:17:35.128Z,1001.07
2018-04-28T10:18:40.633Z,1001.12
2018-04-28T10:19:46.149Z,1001.04
2018-04-28T10:20:51.668Z,1001.06
2018-04-28T10:21:57.203Z,1001.08
2018-04-28T10:23:02.717Z,1001.07
2018-04-28T10:24:08.218Z,1001.07
2018-04-28T10:25:13.745Z,1001.09
2018-04-28T10:26:19.250Z,1001.07
2018-04-28T10:27:24.767Z,1001.08
2018-04-28T10:28:30.289Z,1001.14
2018-04-28T10:29:35.822Z,1001.09
2018-04-28T10:30:41.325Z,1001.05
2018-04-28T10:31:46.844Z,1001.10
2018-04-28T10:32:52.384Z,1001.11
2018-04-28T10:33:57.880Z,1001.10
2018-04-28T10:35:03.384Z,1001.08
2018-04-28T10:36:08.908Z,1001.12
2018-04-28T10:37:14.428Z,1001.11
2018-04-28T10:38:19.946Z,1001.09
2018-04-28T10:39:25.463Z,1001.10
2018-04-28T10:40:30.978Z,1001.13
2018-04-28T10:41:36.496Z,1001.12
2018-04-28T10:42:42.013Z,1001.04
2018-04-28T10:43:47.531Z,1001.09
2018-04-28T10:44:53.038Z,1001.06
2018-04-28T10:45:58.587Z,1001.07
2018-04-28T10:47:04.078Z,1001.07
2018-04-28T10:48:09.590Z,1001.15
2018-04-28T10:49:15.125Z,1001.09
2018-04-28T10:50:20.623Z,1001.16
2018-04-28T10:51:26.140Z,1001.12
2018-04-28T10:52:31.663Z,1001.08
2018-04-28T10:53:37.269Z,1001.08
2018-04-28T10:54:42.701Z,1001.11
2018-04-28T10:55:48.217Z,1001.10
2018-04-28T10:56:53.724Z,1001.13
2018-04-28T10:57:59.252Z,1001.13
2018-04-28T10:59:04.757Z,1001.13
2018-04-28T11:00:10.271Z,1001.15
2018-04-28T11:01:15.796Z,1001.17
2018-04-28T11:02:21.318Z,1001.11
2018-04-28T11:03:26.825Z,1001.13
2018-04-28T11:04:32.345Z,1001.12
2018-04-28T11:05:37.863Z,1001.15
2018-04-28T11:06:43.373Z,1001.19
2018-04-28T11:07:48.902Z,1001.20
2018-04-28T11:08:54.409Z,1001.24
2018-04-28T11:09:59.926Z,1001.26
2018-04-28T11:11:05.451Z,1001.23
2018-04-28T11:12:10.957Z,1001.23
2018-04-28T11:13:16.492Z,1001.25
2018-04-28T11:14:21.989Z,1001.22
2018-04-28T11:15:27.515Z,1001.28
2018-04-28T11:16:33.032Z,1001.23
2018-04-28T11:17:38.545Z,1001.26
2018-04-28T11:18:44.055Z,1001.29
2018-04-28T11:19:49.633Z,1001.22
2018-04-28T11:20:55.106Z,1001.21
2018-04-28T11:22:00.615Z,1001.24
2018-04-28T11:23:06.132Z,1001.21
2018-04-28T11:24:11.639Z,1001.21
2018-04-28T11:25:17.154Z,1001.22
2018-04-28T11:26:22.675Z,1001.19
2018-04-28T11:27:28.187Z,1001.21
2018-04-28T11:28:33.712Z,1001.21
2018-04-28T11:29:39.224Z,1001.27
2018-04-28T11:30:44.741Z,1001.23
2018-04-28T11:31:50.254Z,1001.18
2018-04-28T11:32:55.791Z,1001.22
2018-04-28T11:34:01.287Z,1001.18
2018-04-28T11:35:06.819Z,1001.22
2018-04-28T11:36:12.320Z,1001.23
2018-04-28T11:37:17.844Z,1001.17
2018-04-28T11:38:23.428Z,1001.20
2018-04-28T11:39:28.878Z,1001.22
2018-04-28T11:40:34.391Z,1001.25
2018-04-28T11:41:39.917Z,1001.20
2018-04-28T11:42:45.423Z,1001.20
2018-04-28T11:43:50.972Z,1001.21
2018-04-28T11:44:56.462Z,1001.19
2018-04-28T11:46:01.980Z,1001.22
2018-04-28T11:47:07.496Z,1001.27
2018-04-28T11:48:13.012Z,1001.19
2018-04-28T11:49:18.526Z,1001.19
2018-04-28T11:50:24.047Z,1001.14
2018-04-28T11:51:29.569Z,1001.15
2018-04-28T11:52:35.080Z,1001.18
2018-04-28T11:53:40.595Z,1001.21
2018-04-28T11:54:46.115Z,1001.14
2018-04-28T11:55:51.634Z,1001.14
2018-04-28T11:56:57.147Z,1001.11
2018-04-28T11:58:02.667Z,1001.09
2018-04-28T11:59:08.217Z,1001.10
2018-04-28T12:00:13.701Z,1001.08
2018-04-28T12:01:19.221Z,1001.13
2018-04-28T12:02:24.740Z,1001.12
2018-04-28T12:03:30.249Z,1001.15
2018-04-28T12:04:35.769Z,1001.18
2018-04-28T12:05:41.310Z,1001.17
2018-04-28T12:06:46.808Z,1001.17
2018-04-28T12:07:52.329Z,1001.18
2018-04-28T12:08:57.838Z,1001.17
2018-04-28T12:10:03.363Z,1001.15
2018-04-28T12:11:08.880Z,1001.18
2018-04-28T12:12:14.402Z,1001.13
2018-04-28T12:13:19.907Z,1001.07
2018-04-28T12:14:25.432Z,1001.10
2018-04-28T12:15:30.945Z,1001.14
2018-04-28T12:16:36.478Z,1001.19
2018-04-28T12:17:41.991Z,1001.17
2018-04-28T12:18:47.500Z,1001.14
2018-04-28T12:19:53.016Z,1001.18
2018-04-28T12:20:58.550Z,1001.14
2018-04-28T12:22:04.052Z,1001.20
2018-04-28T12:23:09.569Z,1001.14
2018-04-28T12:24:15.091Z,1001.23
2018-04-28T12:25:20.634Z,1001.17
2018-04-28T12:26:26.132Z,1001.15
2018-04-28T12:27:31.651Z,1001.12
2018-04-28T12:28:37.171Z,1001.19
2018-04-28T12:29:42.712Z,1001.11
2018-04-28T12:30:48.219Z,1001.11
2018-04-28T12:31:53.716Z,1001.15
2018-04-28T12:32:59.236Z,1001.16
2018-04-28T12:34:04.765Z,1001.12
2018-04-28T12:35:10.268Z,1001.10
2018-04-28T12:36:15.787Z,1001.09
2018-04-28T12:37:21.319Z,1001.12
2018-04-28T12:38:26.844Z,1001.11
2018-04-28T12:39:32.342Z,1001.06
2018-04-28T12:40:37.863Z,1001.09
2018-04-28T12:41:43.379Z,1001.04
2018-04-28T12:42:48.897Z,1001.00
2018-04-28T12:43:54.416Z,1001.06
2018-04-28T12:44:59.935Z,1001.09
2018-04-28T12:46:05.465Z,1001.08
2018-04-28T12:47:10.967Z,1001.07
2018-04-28T12:48:16.489Z,1001.02
2018-04-28T12:49:22.010Z,1001.04
2018-04-28T12:50:27.538Z,1001.11
2018-04-28T12:51:33.048Z,1001.12
2018-04-28T12:52:38.562Z,1001.13
2018-04-28T12:53:44.095Z,1001.10
2018-04-28T12:54:49.596Z,1001.14
2018-04-28T12:55:55.112Z,1001.08
2018-04-28T12:57:00.641Z,1001.06
2018-04-28T12:58:06.153Z,1001.07
2018-04-28T12:59:11.665Z,1001.09
2018-04-28T13:00:17.189Z,1001.06
2018-04-28T13:01:22.701Z,1001.06
2018-04-28T13:02:28.241Z,1001.14
2018-04-28T13:03:33.742Z,1001.15
2018-04-28T13:04:39.254Z,1001.19
2018-04-28T13:05:44.773Z,1001.16
2018-04-28T13:06:50.285Z,1001.20
2018-04-28T13:07:55.809Z,1001.18
2018-04-28T13:09:01.326Z,1001.17
2018-04-28T13:10:06.839Z,1001.12
2018-04-28T13:11:12.359Z,1001.15
2018-04-28T13:12:17.884Z,1001.15
2018-04-28T13:13:23.408Z,1001.18
2018-04-28T13:14:28.912Z,1001.18
2018-04-28T13:15:34.436Z,1001.13
2018-04-28T13:16:39.954Z,1001.11
2018-04-28T13:17:45.473Z,1001.13
2018-04-28T13:18:50.985Z,1001.12
2018-04-28T13:19:56.504Z,1001.17
2018-04-28T13:21:02.042Z,1001.14
2018-04-28T13:22:07.545Z,1001.15
2018-04-28T13:23:13.051Z,1001.12